createdAt,value
2022-10-07T00:00:50.986Z,64.95
2022-10-07T00:03:18.214Z,64.40
2022-10-07T00:05:44.577Z,64.75
2022-10-07T00:08:12.146Z,68.28
2022-10-07T00:10:41.092Z,61.10
2022-10-07T00:13:09.811Z,72.03
2022-10-07T00:15:36.443Z,68.93
2022-10-07T00:18:03.484Z,94.07
2022-10-07T00:20:29.944Z,71.97
2022-10-07T00:22:56.361Z,67.55
2022-10-07T00:25:22.897Z,73.63
2022-10-07T00:27:50.205Z,59.13
2022-10-07T00:30:17.275Z,62.35
2022-10-07T00:32:43.986Z,58.90
2022-10-07T00:35:10.774Z,66.57
2022-10-07T00:37:43.072Z,64.30
2022-10-07T00:40:13.530Z,59.30
2022-10-07T00:42:43.234Z,61.60
2022-10-07T00:45:17.700Z,62.92
2022-10-07T00:47:47.248Z,60.80
2022-10-07T00:50:34.581Z,61.17
2022-10-07T00:53:02.717Z,60.20
2022-10-07T00:55:31.503Z,68.65
2022-10-07T00:58:02.894Z,59.17
2022-10-07T01:00:30.190Z,61.88
2022-10-07T01:02:56.656Z,64.68
2022-10-07T01:05:23.323Z,69.18
2022-10-07T01:07:50.694Z,66.40
2022-10-07T01:10:20.391Z,71.32
2022-10-07T01:13:09.859Z,63.72
2022-10-07T01:15:59.256Z,69.80
2022-10-07T01:18:31.416Z,68.43
2022-10-07T01:21:07.856Z,79.55
2022-10-07T01:23:37.271Z,69.82
2022-10-07T01:26:42.392Z,62.83
2022-10-07T01:29:21.518Z,72.78
2022-10-07T01:31:56.557Z,70.88
2022-10-07T01:34:26.520Z,69.05
2022-10-07T01:36:55.723Z,68.78
2022-10-07T01:39:29.409Z,67.75
2022-10-07T01:41:57.627Z,65.93
2022-10-07T01:44:26.530Z,69.95
2022-10-07T01:46:52.977Z,66.03
2022-10-07T01:49:19.389Z,67.18
2022-10-07T01:52:03.822Z,71.57
2022-10-07T01:55:11.864Z,65.43
2022-10-07T01:57:48.922Z,71.63
2022-10-07T02:00:16.672Z,66.82
2022-10-07T02:03:06.560Z,68.45
2022-10-07T02:05:49.553Z,70.43
2022-10-07T02:08:50.466Z,66.80
2022-10-07T02:11:27.330Z,66.97
2022-10-07T02:13:56.468Z,60.65
2022-10-07T02:16:32.705Z,62.70
2022-10-07T02:19:04.357Z,66.35
2022-10-07T02:21:34.374Z,62.33
2022-10-07T02:24:02.097Z,62.33
2022-10-07T02:26:32.552Z,63.78
2022-10-07T02:29:03.028Z,61.30
2022-10-07T02:31:31.976Z,58.97
2022-10-07T02:34:01.310Z,67.70
2022-10-07T02:36:31.725Z,65.30
2022-10-07T02:39:01.059Z,58.85
2022-10-07T02:41:41.857Z,58.40
2022-10-07T02:44:17.469Z,65.03
2022-10-07T02:46:56.021Z,61.15
2022-10-07T02:49:25.116Z,60.92
2022-10-07T02:51:59.425Z,59.03
2022-10-07T02:54:34.681Z,61.22
2022-10-07T02:57:02.042Z,63.08
2022-10-07T02:59:31.048Z,64.82
2022-10-07T03:02:00.809Z,61.13
2022-10-07T03:04:27.987Z,56.15
2022-10-07T03:06:55.445Z,61.30
2022-10-07T03:09:22.070Z,55.55
2022-10-07T03:11:49.278Z,62.22
2022-10-07T03:14:15.725Z,63.92
2022-10-07T03:16:42.164Z,64.40
2022-10-07T03:19:09.732Z,67.82
2022-10-07T03:21:36.272Z,65.35
2022-10-07T03:24:05.032Z,62.92
2022-10-07T03:26:33.039Z,70.60
2022-10-07T03:29:01.182Z,58.42
2022-10-07T03:31:28.246Z,61.40
2022-10-07T03:33:56.859Z,65.00
2022-10-07T03:36:24.495Z,57.00
2022-10-07T03:38:51.636Z,56.42
2022-10-07T03:41:19.177Z,53.60
2022-10-07T03:43:45.688Z,67.30
2022-10-07T03:46:12.154Z,64.95
2022-10-07T03:48:38.667Z,63.60
2022-10-07T03:51:05.283Z,64.68
2022-10-07T03:53:31.808Z,59.08
2022-10-07T03:55:58.410Z,56.65
2022-10-07T03:58:24.838Z,63.80
2022-10-07T04:00:51.309Z,59.35
2022-10-07T04:03:18.793Z,58.30
2022-10-07T04:05:55.792Z,68.97
2022-10-07T04:08:22.181Z,60.83
2022-10-07T04:10:48.564Z,74.25
2022-10-07T04:13:14.975Z,66.40
2022-10-07T04:15:41.363Z,66.70
2022-10-07T04:18:10.141Z,61.00
2022-10-07T04:20:38.203Z,67.35
2022-10-07T04:23:04.787Z,71.40
2022-10-07T04:25:34.061Z,59.60
2022-10-07T04:28:06.773Z,62.92
2022-10-07T04:30:38.648Z,64.88
2022-10-07T04:33:06.249Z,72.55
2022-10-07T04:35:36.697Z,56.70
2022-10-07T04:38:03.137Z,55.35
2022-10-07T04:40:30.918Z,61.35
2022-10-07T04:43:16.224Z,49.20
2022-10-07T04:45:42.638Z,54.33
2022-10-07T04:48:09.071Z,55.78
2022-10-07T04:50:40.042Z,62.55
2022-10-07T04:53:08.356Z,53.78
2022-10-07T04:55:39.895Z,52.20
2022-10-07T04:58:07.022Z,57.42
2022-10-07T05:00:33.669Z,55.90
2022-10-07T05:03:00.401Z,60.85
2022-10-07T05:05:27.884Z,53.72
2022-10-07T05:07:55.125Z,57.55
2022-10-07T05:10:21.911Z,58.97
2022-10-07T05:12:50.505Z,57.50
2022-10-07T05:15:20.239Z,55.95
2022-10-07T05:17:47.179Z,55.75
2022-10-07T05:20:13.766Z,55.00
2022-10-07T05:22:40.245Z,56.80
2022-10-07T05:25:07.026Z,57.85
2022-10-07T05:27:33.503Z,52.53
2022-10-07T05:30:00.027Z,48.80
2022-10-07T05:32:27.898Z,53.08
2022-10-07T05:34:54.463Z,53.25
2022-10-07T05:37:20.882Z,52.20
2022-10-07T05:39:47.327Z,47.20
2022-10-07T05:42:13.777Z,50.55
2022-10-07T05:44:40.477Z,49.85
2022-10-07T05:47:06.942Z,48.00
2022-10-07T05:49:33.411Z,49.67
2022-10-07T05:51:59.856Z,53.00
2022-10-07T05:54:26.318Z,57.92
2022-10-07T05:56:53.884Z,51.75
2022-10-07T05:59:20.711Z,59.00
2022-10-07T06:01:47.279Z,53.83
2022-10-07T06:04:13.856Z,53.95
2022-10-07T06:06:40.305Z,54.17
2022-10-07T06:09:25.004Z,64.28
2022-10-07T06:12:09.847Z,51.40
2022-10-07T06:14:36.304Z,51.67
2022-10-07T06:17:02.919Z,58.05
2022-10-07T06:19:29.370Z,58.42
2022-10-07T06:21:55.796Z,58.75
2022-10-07T06:24:22.192Z,55.25
2022-10-07T06:26:48.801Z,54.70
2022-10-07T06:29:15.202Z,59.75
2022-10-07T06:31:41.681Z,59.05
2022-10-07T06:34:08.087Z,61.40
2022-10-07T06:36:34.510Z,62.72
2022-10-07T06:39:00.934Z,58.45
2022-10-07T06:41:28.048Z,59.35
2022-10-07T06:43:57.178Z,62.00
2022-10-07T06:46:24.025Z,56.80
2022-10-07T06:48:51.176Z,63.63
2022-10-07T06:51:19.879Z,61.80
2022-10-07T06:53:50.240Z,51.90
2022-10-07T06:56:16.636Z,59.77
2022-10-07T06:58:43.436Z,56.03
2022-10-07T07:01:10.814Z,55.42
2022-10-07T07:03:37.310Z,58.60
2022-10-07T07:06:03.964Z,56.67
2022-10-07T07:08:32.960Z,55.35
2022-10-07T07:11:30.192Z,67.47
2022-10-07T07:13:57.151Z,68.28
2022-10-07T07:16:24.565Z,52.47
2022-10-07T07:18:53.042Z,56.95
2022-10-07T07:21:20.241Z,61.70
2022-10-07T07:23:46.803Z,62.78
2022-10-07T07:26:13.802Z,61.13
2022-10-07T07:28:40.393Z,57.55
2022-10-07T07:31:13.433Z,58.75
2022-10-07T07:33:40.367Z,63.00
2022-10-07T07:36:16.297Z,62.95
2022-10-07T07:38:44.018Z,62.00
2022-10-07T07:41:11.182Z,56.35
2022-10-07T07:43:38.054Z,62.25
2022-10-07T07:46:05.011Z,64.80
2022-10-07T07:48:31.515Z,67.60
2022-10-07T07:50:57.984Z,58.08
2022-10-07T07:53:24.399Z,64.75
2022-10-07T07:55:57.512Z,58.45
2022-10-07T07:58:24.624Z,54.75
2022-10-07T08:01:09.081Z,62.50
2022-10-07T08:03:41.194Z,67.43
2022-10-07T08:06:09.663Z,60.28
2022-10-07T08:08:36.431Z,57.58
2022-10-07T08:11:16.353Z,65.57
2022-10-07T08:13:43.312Z,64.38
2022-10-07T08:16:13.161Z,66.32
2022-10-07T08:18:45.045Z,58.58
2022-10-07T08:21:12.221Z,62.38
2022-10-07T08:23:39.956Z,62.58
2022-10-07T08:26:07.635Z,60.50
2022-10-07T08:28:35.035Z,65.20
2022-10-07T08:31:10.489Z,64.28
2022-10-07T08:33:42.729Z,68.80
2022-10-07T08:36:12.819Z,64.75
2022-10-07T08:38:40.411Z,57.78
2022-10-07T08:41:06.755Z,63.35
2022-10-07T08:43:34.824Z,85.95
2022-10-07T08:46:01.881Z,70.32
2022-10-07T08:48:34.118Z,62.83
2022-10-07T08:51:19.765Z,60.95
2022-10-07T08:53:50.909Z,67.72
2022-10-07T08:59:13.974Z,59.88
2022-10-07T09:01:49.283Z,62.80
2022-10-07T09:04:31.126Z,59.95
2022-10-07T09:07:03.602Z,54.47
2022-10-07T09:10:02.409Z,52.95
2022-10-07T09:13:06.805Z,57.45
2022-10-07T09:15:39.309Z,53.20
2022-10-07T09:18:15.175Z,54.60
2022-10-07T09:20:45.640Z,58.10
2022-10-07T09:23:15.383Z,58.72
2022-10-07T09:25:43.300Z,54.17
2022-10-07T09:28:16.170Z,55.75
2022-10-07T09:30:43.620Z,48.33
2022-10-07T09:33:20.389Z,58.55
2022-10-07T09:35:57.917Z,53.42
2022-10-07T09:38:36.357Z,50.97
2022-10-07T09:41:29.042Z,56.65
2022-10-07T09:44:15.757Z,52.38
2022-10-07T09:46:42.213Z,51.72
2022-10-07T09:49:30.558Z,52.85
2022-10-07T09:52:17.750Z,54.92
2022-10-07T09:54:46.451Z,51.60
2022-10-07T09:57:27.897Z,47.63
2022-10-07T10:00:12.754Z,48.78
2022-10-07T10:02:55.407Z,52.97
2022-10-07T10:05:34.317Z,48.10
2022-10-07T10:08:05.335Z,52.90
2022-10-07T10:10:36.660Z,46.03
2022-10-07T10:13:05.838Z,54.85
2022-10-07T10:15:42.814Z,53.15
2022-10-07T10:18:39.603Z,51.67
2022-10-07T10:21:22.845Z,50.30
2022-10-07T10:23:52.582Z,50.55
2022-10-07T10:26:55.930Z,46.25
2022-10-07T10:29:35.739Z,51.05
2022-10-07T10:32:02.137Z,49.70
2022-10-07T10:34:38.303Z,51.72
2022-10-07T10:37:18.346Z,46.40
2022-10-07T10:40:20.080Z,49.07
2022-10-07T10:43:25.111Z,46.92
2022-10-07T10:46:10.470Z,51.97
2022-10-07T10:48:42.643Z,48.58
2022-10-07T10:51:27.959Z,51.97
2022-10-07T10:54:02.781Z,49.75
2022-10-07T10:56:38.094Z,45.90
2022-10-07T10:59:16.514Z,45.30
2022-10-07T11:01:46.207Z,45.00
2022-10-07T11:04:47.254Z,50.05
2022-10-07T11:07:28.632Z,44.70
2022-10-07T11:10:00.587Z,47.08
2022-10-07T11:12:39.642Z,45.85
2022-10-07T11:15:39.247Z,48.67
2022-10-07T11:18:13.877Z,49.70
2022-10-07T11:20:48.367Z,47.75
2022-10-07T11:23:20.557Z,52.22
2022-10-07T11:26:02.576Z,46.80
2022-10-07T11:28:33.256Z,44.17
2022-10-07T11:33:58.388Z,44.53
2022-10-07T11:36:37.383Z,41.78
2022-10-07T11:39:03.955Z,41.15
2022-10-07T11:42:02.017Z,40.28
2022-10-07T11:45:03.248Z,40.95
2022-10-07T11:47:39.154Z,48.80
2022-10-07T11:50:14.301Z,44.13
2022-10-07T11:52:46.368Z,48.95
2022-10-07T11:55:26.498Z,43.15
2022-10-07T11:57:56.440Z,40.33
2022-10-07T12:00:25.962Z,37.33
2022-10-07T12:02:55.120Z,33.05
2022-10-07T12:05:50.917Z,39.20
2022-10-07T12:08:35.846Z,34.05
2022-10-07T12:11:11.175Z,32.47
2022-10-07T12:13:43.814Z,31.30
2022-10-07T12:16:28.421Z,34.25
2022-10-07T12:19:07.194Z,35.05
2022-10-07T12:22:04.931Z,36.00
2022-10-07T12:24:36.065Z,40.67
2022-10-07T12:27:21.981Z,37.42
2022-10-07T12:29:59.828Z,31.05
2022-10-07T12:32:45.073Z,32.83
2022-10-07T12:35:29.984Z,40.10
2022-10-07T12:38:03.197Z,33.25
2022-10-07T12:40:31.656Z,35.47
2022-10-07T12:43:10.775Z,34.17
2022-10-07T12:45:41.034Z,27.88
2022-10-07T12:48:16.335Z,22.63
2022-10-07T12:50:44.596Z,37.53
2022-10-07T12:53:12.421Z,24.60
2022-10-07T12:55:44.945Z,25.70
2022-10-07T12:58:39.159Z,27.58
2022-10-07T13:01:24.090Z,31.17
2022-10-07T13:03:59.486Z,30.90
2022-10-07T13:07:10.473Z,22.98
2022-10-07T13:12:29.817Z,24.25
2022-10-07T13:15:16.253Z,23.90
2022-10-07T13:18:03.194Z,23.17
2022-10-07T13:20:36.551Z,23.50
2022-10-07T13:23:14.217Z,26.73
2022-10-07T13:25:54.858Z,24.73
2022-10-07T13:28:25.058Z,24.63
2022-10-07T13:30:53.395Z,23.05
2022-10-07T13:33:31.204Z,22.30
2022-10-07T13:36:16.785Z,22.35
2022-10-07T13:38:47.804Z,21.10
2022-10-07T13:41:29.015Z,24.80
2022-10-07T13:44:00.439Z,25.48
2022-10-07T13:46:30.265Z,28.40
2022-10-07T13:48:57.915Z,25.15
2022-10-07T13:51:34.771Z,23.95
2022-10-07T13:54:04.415Z,29.20
2022-10-07T13:56:39.774Z,25.25
2022-10-07T13:59:06.926Z,23.63
2022-10-07T14:01:37.935Z,25.80
2022-10-07T14:04:28.558Z,24.35
2022-10-07T14:07:01.182Z,22.17
2022-10-07T14:09:49.382Z,21.52
2022-10-07T14:12:41.138Z,26.30
2022-10-07T14:15:24.624Z,22.73
2022-10-07T14:17:55.062Z,23.25
2022-10-07T14:20:31.954Z,29.25
2022-10-07T14:23:01.826Z,22.50
2022-10-07T14:25:49.614Z,29.10
2022-10-07T14:28:35.431Z,27.77
2022-10-07T14:31:26.680Z,21.17
2022-10-07T14:34:34.227Z,29.67
2022-10-07T14:37:26.159Z,25.02
2022-10-07T14:39:54.768Z,25.73
2022-10-07T14:42:26.203Z,25.67
2022-10-07T14:44:54.898Z,22.73
2022-10-07T14:47:27.988Z,26.20
2022-10-07T14:49:57.139Z,22.65
2022-10-07T14:52:35.161Z,25.67
2022-10-07T14:55:28.610Z,27.58
2022-10-07T14:57:56.130Z,24.38
2022-10-07T15:00:29.253Z,26.52
2022-10-07T15:02:58.125Z,26.58
2022-10-07T15:05:26.525Z,25.17
2022-10-07T15:07:53.077Z,23.98
2022-10-07T15:10:21.898Z,27.48
2022-10-07T15:12:49.221Z,31.20
2022-10-07T15:15:16.045Z,25.02
2022-10-07T15:17:43.817Z,27.95
2022-10-07T15:20:13.878Z,23.95
2022-10-07T15:22:40.869Z,25.33
2022-10-07T15:25:09.707Z,26.65
2022-10-07T15:27:37.652Z,28.33
2022-10-07T15:30:07.158Z,24.88
2022-10-07T15:32:34.221Z,23.83
2022-10-07T15:35:00.760Z,26.85
2022-10-07T15:37:27.394Z,23.75
2022-10-07T15:39:54.750Z,31.60
2022-10-07T15:42:24.481Z,31.90
2022-10-07T15:44:51.951Z,25.75
2022-10-07T15:47:18.688Z,24.33
2022-10-07T15:49:45.166Z,25.20
2022-10-07T15:52:12.118Z,26.15
2022-10-07T15:54:39.042Z,25.27
2022-10-07T15:57:05.771Z,29.08
2022-10-07T15:59:32.206Z,25.35
2022-10-07T16:01:58.784Z,27.48
2022-10-07T16:04:25.633Z,25.40
2022-10-07T16:06:52.197Z,30.55
2022-10-07T16:09:20.073Z,25.67
2022-10-07T16:11:47.508Z,29.23
2022-10-07T16:14:14.915Z,22.85
2022-10-07T16:16:42.583Z,29.48
2022-10-07T16:19:11.411Z,22.77
2022-10-07T16:21:40.217Z,25.95
2022-10-07T16:24:31.282Z,25.45
2022-10-07T16:27:00.619Z,27.60
2022-10-07T16:29:45.497Z,36.45
2022-10-07T16:32:11.998Z,22.02
2022-10-07T16:34:41.916Z,27.98
2022-10-07T16:37:08.353Z,27.80
2022-10-07T16:39:34.785Z,28.98
2022-10-07T16:42:01.276Z,26.17
2022-10-07T16:44:28.010Z,22.90
2022-10-07T16:46:56.579Z,26.02
2022-10-07T16:49:25.453Z,23.00
2022-10-07T16:51:52.988Z,30.23
2022-10-07T16:54:20.088Z,26.35
2022-10-07T16:56:49.893Z,22.90
2022-10-07T16:59:22.496Z,23.20
2022-10-07T17:01:55.548Z,25.77
2022-10-07T17:04:23.074Z,23.73
2022-10-07T17:06:49.504Z,21.70
2022-10-07T17:09:17.408Z,24.15
2022-10-07T17:11:44.194Z,23.05
2022-10-07T17:14:19.766Z,25.23
2022-10-07T17:16:49.087Z,27.08
2022-10-07T17:19:20.636Z,33.40
2022-10-07T17:21:48.508Z,30.23
2022-10-07T17:24:16.739Z,37.03
2022-10-07T17:26:44.375Z,26.67
2022-10-07T17:29:13.239Z,27.98
2022-10-07T17:31:42.476Z,30.60
2022-10-07T17:34:11.137Z,32.38
2022-10-07T17:36:38.456Z,28.45
2022-10-07T17:39:05.947Z,32.63
2022-10-07T17:41:34.497Z,26.77
2022-10-07T17:44:02.827Z,32.53
2022-10-07T17:46:32.378Z,27.50
2022-10-07T17:49:00.725Z,34.35
2022-10-07T17:51:29.214Z,23.67
2022-10-07T17:53:56.588Z,31.50
2022-10-07T17:56:23.875Z,32.47
2022-10-07T17:58:50.725Z,30.55
2022-10-07T18:01:27.215Z,31.58
2022-10-07T18:03:58.947Z,35.33
2022-10-07T18:06:30.324Z,39.88
2022-10-07T18:09:02.212Z,44.78
2022-10-07T18:11:48.604Z,42.20
2022-10-07T18:14:33.888Z,37.58
2022-10-07T18:17:00.542Z,39.25
2022-10-07T18:19:27.170Z,41.47
2022-10-07T18:21:56.195Z,45.53
2022-10-07T18:24:23.576Z,40.97
2022-10-07T18:26:49.981Z,42.42
2022-10-07T18:29:17.289Z,41.10
2022-10-07T18:31:43.877Z,45.80
2022-10-07T18:34:10.838Z,47.10
2022-10-07T18:36:37.307Z,42.40
2022-10-07T18:39:07.149Z,49.05
2022-10-07T18:41:33.559Z,41.15
2022-10-07T18:43:59.992Z,45.20
2022-10-07T18:46:26.580Z,39.85
2022-10-07T18:48:54.101Z,43.70
2022-10-07T18:51:20.629Z,32.88
2022-10-07T18:53:47.295Z,40.80
2022-10-07T18:56:16.933Z,37.17
2022-10-07T18:58:46.361Z,36.78
2022-10-07T19:01:21.682Z,40.13
2022-10-07T19:03:48.983Z,36.83
2022-10-07T19:06:18.596Z,39.10
2022-10-07T19:08:46.062Z,41.10
2022-10-07T19:11:17.815Z,37.75
2022-10-07T19:13:48.152Z,39.08
2022-10-07T19:16:19.551Z,34.38
2022-10-07T19:18:47.536Z,38.40
2022-10-07T19:21:15.268Z,32.22
2022-10-07T19:23:41.779Z,32.63
2022-10-07T19:26:08.657Z,38.03
2022-10-07T19:28:38.840Z,36.38
2022-10-07T19:31:17.766Z,39.28
2022-10-07T19:33:46.073Z,36.92
2022-10-07T19:36:13.992Z,45.75
2022-10-07T19:38:45.874Z,43.65
2022-10-07T19:41:16.471Z,41.58
2022-10-07T19:43:43.835Z,38.33
2022-10-07T19:46:11.161Z,40.50
2022-10-07T19:48:38.824Z,37.30
2022-10-07T19:51:08.582Z,44.35
2022-10-07T19:53:35.933Z,40.90
2022-10-07T19:56:15.697Z,44.72
2022-10-07T19:58:47.909Z,39.85
2022-10-07T20:01:16.451Z,39.38
2022-10-07T20:03:43.068Z,38.40
2022-10-07T20:06:09.921Z,38.08
2022-10-07T20:08:39.625Z,40.33
2022-10-07T20:11:06.960Z,46.50
2022-10-07T20:13:35.634Z,36.28
2022-10-07T20:16:24.192Z,43.92
2022-10-07T20:18:58.432Z,42.72
2022-10-07T20:21:24.824Z,42.80
2022-10-07T20:23:53.603Z,57.10
2022-10-07T20:26:25.788Z,48.38
2022-10-07T20:28:55.463Z,46.00
2022-10-07T20:31:24.826Z,45.33
2022-10-07T20:33:54.184Z,47.55
2022-10-07T20:36:22.895Z,45.10
2022-10-07T20:39:19.487Z,41.78
2022-10-07T20:42:04.748Z,40.92
2022-10-07T20:44:31.156Z,53.15
2022-10-07T20:46:57.645Z,44.38
2022-10-07T20:49:28.301Z,47.90
2022-10-07T20:51:57.395Z,43.35
2022-10-07T20:54:26.184Z,50.22
2022-10-07T20:56:54.260Z,50.80
2022-10-07T20:59:21.090Z,49.17
2022-10-07T21:01:48.125Z,47.30
2022-10-07T21:04:15.854Z,40.95
2022-10-07T21:06:43.422Z,52.92
2022-10-07T21:09:11.947Z,53.95
2022-10-07T21:11:38.440Z,44.72
2022-10-07T21:14:04.998Z,53.75
2022-10-07T21:16:32.380Z,44.28
2022-10-07T21:18:58.906Z,49.47
2022-10-07T21:21:25.873Z,41.35
2022-10-07T21:23:52.913Z,46.97
2022-10-07T21:26:20.558Z,48.78
2022-10-07T21:28:48.373Z,49.42
2022-10-07T21:31:18.144Z,42.30
2022-10-07T21:33:46.854Z,52.63
2022-10-07T21:36:18.664Z,39.83
2022-10-07T21:38:47.631Z,48.25
2022-10-07T21:41:17.219Z,45.85
2022-10-07T21:43:49.237Z,38.60
2022-10-07T21:46:16.520Z,40.53
2022-10-07T21:48:43.466Z,54.47
2022-10-07T21:51:10.119Z,53.55
2022-10-07T21:53:36.986Z,43.15
2022-10-07T21:56:05.353Z,48.40
2022-10-07T21:58:33.334Z,43.40
2022-10-07T22:01:07.944Z,45.13
2022-10-07T22:03:35.080Z,56.83
2022-10-07T22:06:10.041Z,50.10
2022-10-07T22:08:37.806Z,50.03
2022-10-07T22:11:10.297Z,52.47
2022-10-07T22:13:49.617Z,47.90
2022-10-07T22:16:17.990Z,51.08
2022-10-07T22:18:48.916Z,50.75
2022-10-07T22:21:19.310Z,44.60
2022-10-07T22:23:52.249Z,44.60
2022-10-07T22:26:21.017Z,43.92
2022-10-07T22:28:47.492Z,50.00
2022-10-07T22:31:15.480Z,51.85
2022-10-07T22:33:43.479Z,48.03
2022-10-07T22:36:12.845Z,50.60
2022-10-07T22:38:40.882Z,46.40
2022-10-07T22:41:11.065Z,48.67
2022-10-07T22:43:39.197Z,50.43
2022-10-07T22:46:06.853Z,48.85
2022-10-07T22:48:34.661Z,52.10
2022-10-07T22:51:06.386Z,47.70
2022-10-07T22:53:34.845Z,45.45
2022-10-07T22:56:06.285Z,54.83
2022-10-07T22:58:34.040Z,52.60
2022-10-07T23:01:07.898Z,46.97
2022-10-07T23:03:38.294Z,48.20
2022-10-07T23:06:07.759Z,48.55
2022-10-07T23:08:35.445Z,50.42
2022-10-07T23:11:03.505Z,52.15
2022-10-07T23:13:32.983Z,46.33
2022-10-07T23:16:01.599Z,51.65
2022-10-07T23:18:29.535Z,49.60
2022-10-07T23:21:08.410Z,51.08
2022-10-07T23:23:36.434Z,47.42
2022-10-07T23:26:11.563Z,47.10
2022-10-07T23:28:38.849Z,48.08
2022-10-07T23:31:07.102Z,56.85
2022-10-07T23:33:34.743Z,55.95
2022-10-07T23:36:03.961Z,44.63
2022-10-07T23:38:30.349Z,47.15
2022-10-07T23:40:56.761Z,49.90
2022-10-07T23:43:23.370Z,41.15
2022-10-07T23:45:51.093Z,48.78
2022-10-07T23:48:19.085Z,51.65
2022-10-07T23:50:49.777Z,45.88
2022-10-07T23:53:18.690Z,41.78
2022-10-07T23:55:50.755Z,45.22
2022-10-07T23:58:19.946Z,46.35
